Time;durP1;ratioP1;P1;durP2;ratioP2;P2;SDS_P1;SDS_P2;PMS_P1;PMS_P2;Temp;Humidity;BMP_temperature;BMP_pressure;BME280_temperature;BME280_humidity;BME280_pressure;Samples;Min_cycle;Max_cycle;Signal;HPM_P1;HPM_P2
2023/03/21 00:01:02;;;;;;;19.77;10.77;;;;;;;9.06;100.00;101707.97;5069683;28;20439;-46
2023/03/21 00:03:29;;;;;;;20.33;11.40;;;;;;;9.07;100.00;101712.31;5068354;28;20503;-45
2023/03/21 00:05:54;;;;;;;18.75;11.15;;;;;;;9.02;100.00;101709.50;5074693;28;20417;-44
2023/03/21 00:08:22;;;;;;;19.38;11.10;;;;;;;9.01;100.00;101710.31;5076725;28;20081;-45
2023/03/21 00:10:55;;;;;;;24.35;11.93;;;;;;;9.00;100.00;101707.69;5075990;28;20038;-45
2023/03/21 00:13:20;;;;;;;23.20;12.70;;;;;;;8.97;100.00;101703.28;5074476;28;20086;-46
2023/03/21 00:15:53;;;;;;;21.55;11.65;;;;;;;8.96;100.00;101704.09;5058282;28;20040;-46
2023/03/21 00:18:24;;;;;;;24.92;12.82;;;;;;;8.92;100.00;101697.06;5077529;28;20037;-44
2023/03/21 00:21:03;;;;;;;19.23;11.77;;;;;;;8.91;100.00;101695.28;5072561;28;20136;-44
2023/03/21 00:23:30;;;;;;;21.02;11.32;;;;;;;8.87;100.00;101695.97;5074925;28;20048;-46
2023/03/21 00:25:56;;;;;;;23.27;12.90;;;;;;;8.84;100.00;101693.25;5072068;28;20029;-45
2023/03/21 00:28:22;;;;;;;24.05;12.93;;;;;;;8.78;100.00;101680.13;5085496;28;20073;-45
2023/03/21 00:30:48;;;;;;;28.50;13.13;;;;;;;8.75;100.00;101683.44;5072890;28;20107;-48
2023/03/21 00:33:13;;;;;;;28.42;13.00;;;;;;;8.73;100.00;101679.00;5084115;28;20031;-44
2023/03/21 00:35:46;;;;;;;21.98;12.48;;;;;;;8.70;100.00;101686.56;5064979;28;20060;-47
2023/03/21 00:38:12;;;;;;;22.02;12.73;;;;;;;8.70;100.00;101681.44;5079883;28;20036;-48
2023/03/21 00:40:37;;;;;;;29.73;13.18;;;;;;;8.69;100.00;101666.88;5079977;28;20040;-46
2023/03/21 00:43:03;;;;;;;25.65;12.75;;;;;;;8.70;100.00;101673.75;5077357;28;20544;-45
2023/03/21 00:45:28;;;;;;;20.73;12.88;;;;;;;8.68;100.00;101673.69;5062984;28;20111;-45
2023/03/21 00:47:54;;;;;;;19.23;11.93;;;;;;;8.66;100.00;101666.72;5078144;28;20027;-45
2023/03/21 00:50:19;;;;;;;21.85;13.05;;;;;;;8.65;100.00;101673.53;5087023;28;20496;-47
2023/03/21 00:52:45;;;;;;;23.10;13.82;;;;;;;8.62;100.00;101660.56;5073653;28;20043;-45
2023/03/21 00:55:15;;;;;;;22.38;12.77;;;;;;;8.60;100.00;101662.16;5081118;28;20107;-44
2023/03/21 00:57:41;;;;;;;27.05;12.85;;;;;;;8.57;100.00;101655.22;5075860;28;20052;-44
2023/03/21 01:00:09;;;;;;;26.38;13.63;;;;;;;8.57;100.00;101657.78;5081856;28;20068;-46
2023/03/21 01:02:36;;;;;;;22.38;13.32;;;;;;;8.54;100.00;101660.19;5079747;28;20119;-45
2023/03/21 01:05:03;;;;;;;23.77;13.20;;;;;;;8.55;100.00;101653.34;5076683;28;20441;-45
2023/03/21 01:07:28;;;;;;;23.67;14.05;;;;;;;8.55;100.00;101648.22;5069741;28;20499;-46
2023/03/21 01:09:54;;;;;;;28.35;13.68;;;;;;;8.55;100.00;101638.88;5062008;28;20101;-45
2023/03/21 01:12:19;;;;;;;22.38;13.90;;;;;;;8.55;100.00;101641.44;5076967;28;20407;-43
2023/03/21 01:14:45;;;;;;;30.00;13.23;;;;;;;8.57;100.00;101641.53;5082782;28;20506;-47
2023/03/21 01:17:10;;;;;;;20.13;12.98;;;;;;;8.58;100.00;101633.91;5077121;28;20115;-44
2023/03/21 01:19:36;;;;;;;20.83;12.05;;;;;;;8.59;100.00;101627.97;5079076;28;20021;-45
2023/03/21 01:22:01;;;;;;;24.48;12.43;;;;;;;8.60;100.00;101632.28;5072522;28;20032;-45
2023/03/21 01:24:26;;;;;;;22.90;12.05;;;;;;;8.62;100.00;101627.25;5055692;28;20043;-47
2023/03/21 01:26:52;;;;;;;24.92;11.85;;;;;;;8.63;100.00;101620.44;5057385;28;20035;-45
2023/03/21 01:29:18;;;;;;;25.42;11.68;;;;;;;8.64;100.00;101617.94;5058454;28;20024;-43
2023/03/21 01:31:43;;;;;;;22.27;12.50;;;;;;;8.65;100.00;101617.13;5077564;28;20050;-44
2023/03/21 01:34:09;;;;;;;21.10;11.25;;;;;;;8.67;100.00;101619.75;5079435;28;20108;-46
2023/03/21 01:36:34;;;;;;;17.10;10.75;;;;;;;8.68;100.00;101613.84;5076082;28;20028;-47
2023/03/21 01:38:59;;;;;;;22.88;11.00;;;;;;;8.67;100.00;101607.81;5074328;28;20036;-47
2023/03/21 01:41:40;;;;;;;21.65;10.85;;;;;;;8.70;100.00;101607.09;5076923;28;20056;-48
2023/03/21 01:44:06;;;;;;;26.30;11.38;;;;;;;8.70;100.00;101600.28;5078663;28;20036;-49
2023/03/21 01:46:51;;;;;;;22.13;10.70;;;;;;;8.72;100.00;101602.91;5073892;28;20025;-48
2023/03/21 01:49:33;;;;;;;19.85;10.75;;;;;;;8.72;100.00;101600.34;5077849;28;20025;-48
2023/03/21 01:52:11;;;;;;;19.70;10.18;;;;;;;8.73;100.00;101605.53;5074717;28;20025;-46
2023/03/21 01:54:40;;;;;;;27.08;11.45;;;;;;;8.72;100.00;101603.78;5053535;28;20024;-46
2023/03/21 01:57:10;;;;;;;21.65;10.05;;;;;;;8.72;100.00;101597.78;5075758;28;20025;-49
2023/03/21 01:59:48;;;;;;;18.52;9.93;;;;;;;8.72;100.00;101596.09;5079925;28;20066;-48
2023/03/21 02:02:19;;;;;;;17.17;10.38;;;;;;;8.72;100.00;101590.09;5083460;28;20028;-46
2023/03/21 02:04:49;;;;;;;28.35;10.52;;;;;;;8.72;100.00;101584.94;5076474;28;20039;-46
2023/03/21 02:07:21;;;;;;;19.33;10.27;;;;;;;8.72;100.00;101590.97;5080885;28;20028;-49
2023/03/21 02:09:49;;;;;;;20.98;9.73;;;;;;;8.72;100.00;101590.09;5074901;28;20296;-49
2023/03/21 02:12:15;;;;;;;23.00;10.15;;;;;;;8.72;100.00;101587.53;5073957;28;20025;-48
2023/03/21 02:14:41;;;;;;;20.60;9.65;;;;;;;8.71;100.00;101578.94;5076398;28;20521;-48
2023/03/21 02:17:27;;;;;;;16.80;9.63;;;;;;;8.72;100.00;101572.13;5071101;28;20387;-48
2023/03/21 02:20:13;;;;;;;17.30;9.07;;;;;;;8.74;100.00;101573.09;5077446;28;20028;-49
2023/03/21 02:22:57;;;;;;;21.38;9.75;;;;;;;8.72;100.00;101570.44;5073377;28;20024;-48
2023/03/21 02:25:38;;;;;;;17.02;8.90;;;;;;;8.74;100.00;101565.41;5054150;28;20110;-47
2023/03/21 02:28:12;;;;;;;21.25;8.73;;;;;;;8.72;100.00;101567.00;5071713;28;20050;-48
2023/03/21 02:31:04;;;;;;;20.23;9.38;;;;;;;8.73;100.00;101564.50;5069193;28;20569;-49
2023/03/21 02:33:38;;;;;;;21.80;8.45;;;;;;;8.71;100.00;101560.13;5072713;28;20028;-51
2023/03/21 02:36:39;;;;;;;15.85;8.48;;;;;;;8.72;100.00;101556.75;5075358;28;20039;-49
2023/03/21 02:39:19;;;;;;;18.98;8.50;;;;;;;8.70;100.00;101556.69;5065626;28;20040;-47
2023/03/21 02:41:50;;;;;;;17.73;8.35;;;;;;;8.70;100.00;101553.25;5071128;28;20047;-47
2023/03/21 02:44:57;;;;;;;17.63;8.13;;;;;;;8.71;100.00;101553.31;5074760;28;20024;-48
2023/03/21 02:47:29;;;;;;;15.68;8.52;;;;;;;8.67;100.00;101546.28;5074336;28;20038;-48
2023/03/21 02:50:01;;;;;;;15.00;8.70;;;;;;;8.65;100.00;101549.59;5068385;28;20025;-50
2023/03/21 02:52:30;;;;;;;22.20;8.85;;;;;;;8.64;100.00;101546.16;5072582;28;20437;-50
2023/03/21 02:54:57;;;;;;;16.92;8.38;;;;;;;8.64;100.00;101552.97;5072810;28;20024;-46
2023/03/21 02:57:23;;;;;;;19.88;8.88;;;;;;;8.62;100.00;101558.03;5074279;28;20032;-47
2023/03/21 02:59:50;;;;;;;18.20;8.80;;;;;;;8.60;100.00;101542.53;5070982;28;20149;-47
2023/03/21 03:02:23;;;;;;;14.95;8.50;;;;;;;8.62;100.00;101541.78;5072547;28;20093;-46
2023/03/21 03:04:49;;;;;;;17.25;8.45;;;;;;;8.59;100.00;101540.78;5069916;28;20024;-47
2023/03/21 03:07:28;;;;;;;15.02;9.00;;;;;;;8.58;100.00;101536.47;5073087;28;20029;-47
2023/03/21 03:10:06;;;;;;;15.90;8.68;;;;;;;8.58;100.00;101533.03;5056405;28;20032;-47
2023/03/21 03:12:35;;;;;;;15.63;8.15;;;;;;;8.57;100.00;101524.47;5072797;28;20115;-46
2023/03/21 03:15:16;;;;;;;19.70;8.90;;;;;;;8.59;100.00;101530.53;5078320;28;20020;-48
2023/03/21 03:17:50;;;;;;;16.63;8.20;;;;;;;8.58;100.00;101526.22;5073381;28;20028;-46
2023/03/21 03:20:22;;;;;;;18.17;8.80;;;;;;;8.57;100.00;101524.47;5072001;28;20085;-48
2023/03/21 03:22:57;;;;;;;19.30;8.23;;;;;;;8.56;100.00;101522.72;5069911;28;20040;-45
2023/03/21 03:25:28;;;;;;;18.00;8.48;;;;;;;8.55;100.00;101518.41;5075112;28;20458;-46
2023/03/21 03:27:55;;;;;;;17.05;8.05;;;;;;;8.58;100.00;101526.22;5079047;28;20028;-46
2023/03/21 03:30:23;;;;;;;16.85;8.30;;;;;;;8.57;100.00;101510.78;5075178;28;20114;-47
2023/03/21 03:32:57;;;;;;;18.65;8.55;;;;;;;8.58;100.00;101517.66;5078190;28;20024;-46
2023/03/21 03:35:25;;;;;;;19.50;8.82;;;;;;;8.57;100.00;101514.22;5076870;28;20391;-47
2023/03/21 03:37:55;;;;;;;15.60;8.95;;;;;;;8.57;100.00;101514.22;5071960;28;20474;-47
2023/03/21 03:40:28;;;;;;;17.33;8.93;;;;;;;8.56;100.00;101509.91;5070899;28;20041;-47
2023/03/21 03:42:59;;;;;;;18.30;8.40;;;;;;;8.58;100.00;101509.97;5073395;28;20028;-47
2023/03/21 03:45:32;;;;;;;15.13;8.60;;;;;;;8.56;100.00;101512.47;5078319;28;20098;-49
2023/03/21 03:48:12;;;;;;;21.27;9.30;;;;;;;8.57;100.00;101508.22;5070774;28;20028;-48
2023/03/21 03:50:43;;;;;;;18.52;9.05;;;;;;;8.55;100.00;101503.03;5075606;28;20399;-48
2023/03/21 03:53:56;;;;;;;17.42;8.73;;;;;;;8.54;100.00;101493.56;5071731;28;20035;-49
2023/03/21 03:56:24;;;;;;;20.50;9.02;;;;;;;8.55;100.00;101497.91;5059425;28;20032;-48
2023/03/21 03:58:49;;;;;;;16.60;9.45;;;;;;;8.54;100.00;101496.13;5070584;28;20573;-46
2023/03/21 04:01:16;;;;;;;16.63;9.30;;;;;;;8.55;100.00;101497.00;5072858;28;20048;-46
2023/03/21 04:03:46;;;;;;;17.27;8.57;;;;;;;8.53;100.00;101496.94;5073935;28;20036;-47
2023/03/21 04:06:12;;;;;;;18.98;8.65;;;;;;;8.54;100.00;101496.13;5072368;28;20099;-46
2023/03/21 04:08:38;;;;;;;20.23;8.70;;;;;;;8.53;100.00;101496.94;5074101;28;20033;-49
2023/03/21 04:11:04;;;;;;;17.92;9.38;;;;;;;8.52;100.00;101494.31;5069670;28;20364;-46
2023/03/21 04:13:29;;;;;;;20.75;8.70;;;;;;;8.50;100.00;101491.69;5070315;28;20119;-46
2023/03/21 04:15:55;;;;;;;17.25;9.05;;;;;;;8.50;100.00;101486.56;5051745;28;20425;-48
2023/03/21 04:18:22;;;;;;;15.95;8.85;;;;;;;8.49;100.00;101486.47;5075881;28;20039;-46
2023/03/21 04:20:50;;;;;;;18.52;9.00;;;;;;;8.49;100.00;101489.03;5070399;28;20043;-46
2023/03/21 04:23:17;;;;;;;18.90;9.20;;;;;;;8.49;100.00;101484.81;5060104;28;20468;-48
2023/03/21 04:25:43;;;;;;;20.35;8.85;;;;;;;8.49;100.00;101484.81;5074943;28;20394;-46
2023/03/21 04:28:09;;;;;;;18.85;9.80;;;;;;;8.50;100.00;101484.00;5073614;28;20387;-48
2023/03/21 04:30:35;;;;;;;20.20;9.70;;;;;;;8.49;100.00;101476.22;5071159;28;20028;-47
2023/03/21 04:33:00;;;;;;;20.25;9.40;;;;;;;8.50;100.00;101478.88;5075767;28;20036;-50
2023/03/21 04:35:27;;;;;;;17.77;9.05;;;;;;;8.50;100.00;101476.31;5068701;28;20028;-47
2023/03/21 04:37:53;;;;;;;22.23;8.93;;;;;;;8.53;100.00;101476.44;5073520;28;20758;-46
2023/03/21 04:40:19;;;;;;;19.88;8.90;;;;;;;8.54;100.00;101470.50;5070912;28;20058;-49
2023/03/21 04:42:46;;;;;;;16.88;8.50;;;;;;;8.55;100.00;101466.25;5069354;28;20085;-46
2023/03/21 04:45:12;;;;;;;24.55;10.25;;;;;;;8.55;100.00;101467.16;5069244;28;20103;-44
2023/03/21 04:47:37;;;;;;;19.48;9.52;;;;;;;8.56;100.00;101466.34;5068251;28;20387;-45
2023/03/21 04:50:03;;;;;;;17.50;9.32;;;;;;;8.57;100.00;101465.50;5076153;28;20036;-45
2023/03/21 04:52:28;;;;;;;21.30;9.02;;;;;;;8.58;100.00;101462.13;5074058;28;20044;-45
2023/03/21 04:54:54;;;;;;;18.60;9.43;;;;;;;8.59;100.00;101451.06;5074336;28;20514;-46
2023/03/21 04:57:19;;;;;;;18.85;8.52;;;;;;;8.61;100.00;101451.13;5070759;28;20025;-44
2023/03/21 04:59:45;;;;;;;23.10;9.50;;;;;;;8.62;100.00;101449.47;5077785;28;20052;-48
2023/03/21 05:02:12;;;;;;;21.88;9.68;;;;;;;8.60;100.00;101445.13;5074106;28;20154;-46
2023/03/21 05:04:37;;;;;;;14.45;8.55;;;;;;;8.66;100.00;101453.91;5066489;28;20063;-48
2023/03/21 05:07:03;;;;;;;21.42;8.90;;;;;;;8.63;100.00;101454.66;5068951;28;20396;-45
2023/03/21 05:09:28;;;;;;;24.00;8.77;;;;;;;8.65;100.00;101445.34;5070754;28;20037;-44
2023/03/21 05:11:54;;;;;;;22.52;9.20;;;;;;;8.66;100.00;101448.78;5051461;28;20028;-45
2023/03/21 05:14:23;;;;;;;18.65;9.00;;;;;;;8.66;100.00;101441.97;5073322;28;20066;-46
2023/03/21 05:16:52;;;;;;;21.10;9.05;;;;;;;8.67;100.00;101445.41;5075724;28;20043;-45
2023/03/21 05:19:19;;;;;;;;;;;;;;;8.72;100.00;101446.50;5076279;28;20463;-44
2023/03/21 05:21:45;;;;;;;21.65;8.75;;;;;;;8.68;100.00;101444.63;5071028;28;19912;-45
2023/03/21 05:24:16;;;;;;;19.92;8.05;;;;;;;8.68;100.00;101448.06;5072562;28;20021;-46
2023/03/21 05:26:43;;;;;;;22.65;8.45;;;;;;;8.70;100.00;101449.00;5080400;28;20458;-46
2023/03/21 05:29:09;;;;;;;21.15;8.52;;;;;;;8.73;100.00;101445.69;5081997;28;20150;-44
2023/03/21 05:31:35;;;;;;;19.42;8.90;;;;;;;8.72;100.00;101443.94;5082450;28;20120;-44
2023/03/21 05:34:01;;;;;;;19.38;8.40;;;;;;;8.73;100.00;101438.00;5073494;28;20066;-44
2023/03/21 05:36:27;;;;;;;18.13;8.57;;;;;;;8.74;100.00;101434.66;5071930;28;20034;-45
2023/03/21 05:38:52;;;;;;;18.92;7.78;;;;;;;8.75;100.00;101439.84;5078838;28;20032;-46
2023/03/21 05:41:20;;;;;;;16.02;7.78;;;;;;;8.77;100.00;101438.19;5077458;28;20158;-46
2023/03/21 05:43:45;;;;;;;15.98;7.32;;;;;;;8.76;100.00;101438.16;5074051;28;20024;-45
2023/03/21 05:46:10;;;;;;;20.42;8.38;;;;;;;8.77;100.00;101434.75;5074961;28;20021;-45
2023/03/21 05:48:36;;;;;;;22.98;7.90;;;;;;;8.81;100.00;101436.66;5070564;28;20502;-45
2023/03/21 05:51:02;;;;;;;18.58;8.27;;;;;;;8.82;100.00;101434.16;5073231;28;20025;-46
2023/03/21 05:53:27;;;;;;;18.60;8.18;;;;;;;8.84;100.00;101436.78;5072235;28;20520;-45
2023/03/21 05:55:52;;;;;;;17.45;7.60;;;;;;;8.84;100.00;101436.78;5075679;28;20090;-48
2023/03/21 05:58:18;;;;;;;15.75;7.50;;;;;;;8.86;100.00;101440.31;5074554;28;20108;-46
2023/03/21 06:00:44;;;;;;;14.38;7.15;;;;;;;8.85;100.00;101433.41;5074331;28;20032;-46
2023/03/21 06:03:09;;;;;;;15.57;7.60;;;;;;;8.84;100.00;101432.53;5052159;28;20402;-46
2023/03/21 06:05:35;;;;;;;23.75;8.88;;;;;;;8.84;100.00;101435.09;5079943;28;20127;-45
2023/03/21 06:08:00;;;;;;;15.15;6.65;;;;;;;8.86;100.00;101432.63;5075741;28;20024;-49
2023/03/21 06:10:26;;;;;;;18.05;7.35;;;;;;;8.85;100.00;101438.53;5054973;28;20035;-45
2023/03/21 06:12:51;;;;;;;17.65;7.63;;;;;;;8.86;100.00;101430.06;5076407;28;20051;-49
2023/03/21 06:15:17;;;;;;;16.98;7.00;;;;;;;8.88;100.00;101427.56;5073413;28;20029;-46
2023/03/21 06:17:42;;;;;;;16.63;7.13;;;;;;;8.90;100.00;101437.06;5071352;28;20054;-44
2023/03/21 06:20:09;;;;;;;16.13;6.97;;;;;;;8.92;100.00;101432.88;5075392;28;20111;-45
2023/03/21 06:22:35;;;;;;;19.88;6.53;;;;;;;8.94;100.00;101436.38;5072108;28;20043;-45
2023/03/21 06:25:00;;;;;;;17.30;6.30;;;;;;;8.94;100.00;101436.38;5074909;28;20024;-46
2023/03/21 06:27:26;;;;;;;14.30;7.13;;;;;;;8.98;100.00;101442.50;5078455;28;20053;-47
2023/03/21 06:29:51;;;;;;;16.75;6.78;;;;;;;9.00;100.00;101436.66;5074415;28;20012;-45
2023/03/21 06:32:17;;;;;;;13.25;7.18;;;;;;;9.03;100.00;101438.47;5072478;28;20078;-46
2023/03/21 06:34:42;;;;;;;15.05;6.25;;;;;;;9.05;100.00;101444.56;5075593;28;20043;-45
2023/03/21 06:37:08;;;;;;;18.10;7.80;;;;;;;9.07;100.00;101443.81;5073743;28;20060;-45
2023/03/21 06:39:34;;;;;;;16.65;6.32;;;;;;;9.08;100.00;101445.56;5051683;28;20036;-45
2023/03/21 06:41:59;;;;;;;16.65;6.25;;;;;;;9.13;100.00;101456.91;5054942;28;20024;-45
2023/03/21 06:44:26;;;;;;;17.55;6.70;;;;;;;9.13;100.00;101444.06;5074143;28;20036;-44
2023/03/21 06:46:52;;;;;;;17.15;6.35;;;;;;;9.12;100.00;101442.31;5077079;28;20102;-45
2023/03/21 06:49:17;;;;;;;20.13;6.53;;;;;;;9.12;100.00;101454.28;5072528;28;20040;-45
2023/03/21 06:51:43;;;;;;;17.73;6.80;;;;;;;9.11;100.00;101450.84;5070922;28;20429;-47
2023/03/21 06:54:08;;;;;;;17.75;6.90;;;;;;;9.09;100.00;101441.28;5072156;28;20146;-49
2023/03/21 06:56:34;;;;;;;16.60;7.20;;;;;;;9.08;100.00;101442.97;5073745;28;20064;-48
2023/03/21 06:58:59;;;;;;;15.05;6.93;;;;;;;9.07;100.00;101450.63;5075537;28;20497;-48
2023/03/21 07:01:26;;;;;;;18.30;7.30;;;;;;;9.04;100.00;101443.69;5070734;28;20042;-45
2023/03/21 07:03:52;;;;;;;17.15;6.93;;;;;;;9.04;100.00;101450.47;5072287;28;20078;-44
2023/03/21 07:06:18;;;;;;;20.15;7.25;;;;;;;9.02;100.00;101449.53;5071129;28;20036;-45
2023/03/21 07:08:43;;;;;;;20.92;7.32;;;;;;;9.00;100.00;101449.47;5063061;28;20607;-45
2023/03/21 07:11:09;;;;;;;17.65;6.90;;;;;;;9.00;100.00;101453.75;5067004;28;20023;-45
2023/03/21 07:13:34;;;;;;;18.10;6.93;;;;;;;9.01;100.00;101458.06;5078545;28;20105;-44
2023/03/21 07:16:00;;;;;;;17.20;7.50;;;;;;;9.00;100.00;101467.44;5075131;28;20024;-47
2023/03/21 07:18:26;;;;;;;16.73;7.40;;;;;;;8.99;100.00;101463.13;5073813;28;20033;-47
2023/03/21 07:20:51;;;;;;;17.05;7.40;;;;;;;8.98;100.00;101465.59;5074812;28;20063;-45
2023/03/21 07:23:21;;;;;;;17.15;7.38;;;;;;;8.98;100.00;101469.06;5072320;28;20487;-46
2023/03/21 07:25:48;;;;;;;17.02;7.45;;;;;;;8.98;100.00;101471.63;5073063;28;20024;-45
2023/03/21 07:28:15;;;;;;;17.30;7.55;;;;;;;9.00;100.00;101469.13;5068896;28;20024;-46
2023/03/21 07:30:41;;;;;;;18.08;7.50;;;;;;;8.99;100.00;101469.94;5071650;28;21877;-44
2023/03/21 07:33:07;;;;;;;17.33;7.60;;;;;;;9.00;100.00;101471.69;5057641;28;20035;-46
2023/03/21 07:35:32;;;;;;;19.33;7.93;;;;;;;9.03;100.00;101464.13;5078320;28;20039;-45
2023/03/21 07:37:58;;;;;;;22.13;7.53;;;;;;;9.03;100.00;101470.13;5071312;28;20070;-46
2023/03/21 07:40:23;;;;;;;20.35;8.60;;;;;;;9.04;100.00;101465.88;5072383;28;20101;-50
2023/03/21 07:42:52;;;;;;;20.63;8.10;;;;;;;9.04;100.00;101466.78;5071373;28;20038;-46
2023/03/21 07:45:20;;;;;;;20.58;8.10;;;;;;;9.02;100.00;101465.81;5072323;28;20111;-49
2023/03/21 07:47:47;;;;;;;17.40;8.35;;;;;;;9.04;100.00;101463.31;5072466;28;20059;-47
2023/03/21 07:50:13;;;;;;;19.45;8.07;;;;;;;9.05;100.00;101458.25;5069044;28;20035;-47
2023/03/21 07:52:38;;;;;;;21.42;8.57;;;;;;;9.07;100.00;101455.75;5069744;28;20043;-49
2023/03/21 07:55:04;;;;;;;22.23;8.73;;;;;;;9.09;100.00;101459.25;5066035;28;20040;-50
2023/03/21 07:57:30;;;;;;;17.00;8.75;;;;;;;9.11;100.00;101448.25;5067525;28;20027;-46
2023/03/21 07:59:56;;;;;;;19.50;8.10;;;;;;;9.12;100.00;101447.44;5055960;28;20032;-45
2023/03/21 08:02:21;;;;;;;19.33;8.88;;;;;;;9.08;100.00;101440.41;5068922;28;20051;-47
2023/03/21 08:04:46;;;;;;;21.42;8.63;;;;;;;9.07;100.00;101446.38;5047541;28;20031;-49
2023/03/21 08:07:12;;;;;;;18.13;8.48;;;;;;;9.06;100.00;101434.34;5072396;28;20195;-45
2023/03/21 08:09:37;;;;;;;20.63;8.50;;;;;;;9.07;100.00;101435.22;5073267;28;20391;-46
2023/03/21 08:12:04;;;;;;;21.05;8.48;;;;;;;9.08;100.00;101424.16;5074128;28;20478;-45
2023/03/21 08:14:30;;;;;;;18.75;8.80;;;;;;;9.11;100.00;101422.59;5071552;28;20043;-51
2023/03/21 08:16:55;;;;;;;23.52;9.55;;;;;;;9.16;100.00;101430.50;5071060;28;20028;-46
2023/03/21 08:19:21;;;;;;;22.20;9.60;;;;;;;9.20;100.00;101427.25;5072496;28;20036;-48
2023/03/21 08:21:50;;;;;;;19.90;9.07;;;;;;;9.23;100.00;101422.25;5069632;28;20031;-47
2023/03/21 08:24:16;;;;;;;18.45;9.10;;;;;;;9.26;100.00;101409.53;5068769;28;20040;-45
2023/03/21 08:26:42;;;;;;;17.00;9.27;;;;;;;9.31;100.00;101414.88;5070782;28;20031;-48
2023/03/21 08:29:08;;;;;;;20.60;9.25;;;;;;;9.34;100.00;101404.72;5073534;28;20032;-47
2023/03/21 08:31:33;;;;;;;17.20;8.77;;;;;;;9.43;100.00;101406.81;5074034;28;20047;-48
2023/03/21 08:33:58;;;;;;;19.55;9.20;;;;;;;9.45;100.00;101406.03;5073353;28;20387;-48
2023/03/21 08:36:25;;;;;;;17.98;8.80;;;;;;;9.47;100.00;101404.44;5074954;28;20051;-48
2023/03/21 08:38:55;;;;;;;20.58;8.98;;;;;;;9.49;100.00;101410.50;5072743;28;20649;-49
2023/03/21 08:41:21;;;;;;;20.80;8.48;;;;;;;9.53;100.00;101406.38;5070908;28;20045;-50
2023/03/21 08:43:47;;;;;;;18.65;8.48;;;;;;;9.55;100.00;101410.75;5071454;28;20051;-51
2023/03/21 08:46:13;;;;;;;23.02;9.30;;;;;;;9.58;100.00;101413.41;5070038;28;20025;-46
2023/03/21 08:48:38;;;;;;;15.75;8.68;;;;;;;9.57;100.00;101409.09;5072944;28;20513;-47
2023/03/21 08:51:05;;;;;;;18.38;8.40;;;;;;;9.57;100.00;101401.41;5054374;28;20136;-48
2023/03/21 08:53:31;;;;;;;22.08;8.38;;;;;;;9.61;100.00;101407.56;5079295;28;20069;-48
2023/03/21 08:55:56;;;;;;;17.45;8.00;;;;;;;9.58;100.00;101397.16;5076969;28;20024;-49
2023/03/21 08:58:21;;;;;;;20.55;8.52;;;;;;;9.58;100.00;101395.44;5074671;28;20039;-50
2023/03/21 09:00:47;;;;;;;17.90;8.20;;;;;;;9.59;100.00;101396.34;5074179;28;20036;-47
2023/03/21 09:03:12;;;;;;;19.05;8.00;;;;;;;9.60;100.00;101383.56;5073393;28;20037;-48
2023/03/21 09:05:38;;;;;;;19.65;7.97;;;;;;;9.60;100.00;101388.72;5075747;28;20426;-49
2023/03/21 09:08:04;;;;;;;13.23;7.55;;;;;;;9.62;100.00;101381.06;5073456;28;20028;-48
2023/03/21 09:10:30;;;;;;;13.20;6.50;;;;;;;9.64;100.00;101377.72;5075194;28;20031;-46
2023/03/21 09:12:55;;;;;;;15.73;6.93;;;;;;;9.70;100.00;101386.50;5077234;28;20051;-44
2023/03/21 09:15:23;;;;;;;13.23;6.40;;;;;;;9.72;100.00;101390.91;5077974;28;20040;-46
2023/03/21 09:17:51;;;;;;;15.98;7.00;;;;;;;9.74;100.00;101380.69;5080221;28;20063;-48
2023/03/21 09:20:19;;;;;;;19.65;7.05;;;;;;;9.80;100.00;101380.91;5078777;28;20035;-46
2023/03/21 09:22:50;;;;;;;12.45;6.32;;;;;;;9.85;100.00;101384.53;5075188;28;20485;-47
2023/03/21 09:25:17;;;;;;;15.27;6.72;;;;;;;9.97;100.00;101379.88;5072905;28;20048;-45
2023/03/21 09:27:46;;;;;;;15.63;6.97;;;;;;;10.05;100.00;101377.59;5077681;28;20024;-48
2023/03/21 09:30:14;;;;;;;13.75;6.55;;;;;;;10.11;100.00;101372.69;5075166;28;20032;-48
2023/03/21 09:32:40;;;;;;;17.83;6.80;;;;;;;10.19;100.00;101363.56;5050056;28;21538;-46
2023/03/21 09:35:07;;;;;;;14.55;6.68;;;;;;;10.24;100.00;101363.78;5077199;28;20024;-45
2023/03/21 09:37:33;;;;;;;16.60;7.07;;;;;;;10.31;100.00;101366.63;5073129;28;20103;-45
2023/03/21 09:39:58;;;;;;;14.43;5.68;;;;;;;10.31;100.00;101366.63;5075534;28;20032;-46
2023/03/21 09:42:42;;;;;;;14.00;6.60;;;;;;;10.36;100.00;101364.25;5073445;28;20043;-44
2023/03/21 09:45:18;;;;;;;15.27;7.03;;;;;;;10.36;100.00;101362.53;5075039;28;20632;-45
2023/03/21 09:47:55;;;;;;;11.95;6.25;;;;;;;10.38;100.00;101360.91;5070864;28;20056;-46
2023/03/21 09:50:30;;;;;;;12.00;5.90;;;;;;;10.40;100.00;101366.13;5076886;28;20410;-50
2023/03/21 09:53:08;;;;;;;12.68;5.70;;;;;;;10.39;100.00;101354.94;5074222;28;20113;-51
2023/03/21 09:55:37;;;;;;;13.33;6.03;;;;;;;10.41;100.00;101352.44;5072140;28;20031;-48
2023/03/21 09:58:29;;;;;;;11.75;5.78;;;;;;;10.46;100.00;101350.91;5074741;28;20057;-46
2023/03/21 10:01:15;;;;;;;11.80;5.30;;;;;;;10.44;100.00;101353.44;5076909;28;20058;-47
2023/03/21 10:03:42;;;;;;;13.80;5.70;;;;;;;10.46;100.00;101343.19;5071348;28;20040;-46
2023/03/21 10:06:14;;;;;;;15.48;5.65;;;;;;;10.55;100.00;101346.06;5076138;28;20041;-48
2023/03/21 10:08:41;;;;;;;14.50;5.43;;;;;;;10.61;100.00;101330.88;5074997;28;20085;-46
2023/03/21 10:11:21;;;;;;;12.68;5.32;;;;;;;10.68;100.00;101335.44;5074541;28;20028;-48
2023/03/21 10:13:58;;;;;;;9.75;5.22;;;;;;;10.74;100.00;101330.50;5049217;28;20028;-50
2023/03/21 10:16:34;;;;;;;13.07;5.32;;;;;;;10.84;100.00;101330.81;5070566;28;20032;-49
2023/03/21 10:19:03;;;;;;;11.50;5.47;;;;;;;10.87;100.00;101339.50;5069700;28;20024;-46
2023/03/21 10:21:30;;;;;;;11.90;5.80;;;;;;;10.89;100.00;101327.56;5071687;28;20409;-48
2023/03/21 10:23:58;;;;;;;12.45;5.15;;;;;;;10.95;100.00;101332.03;5072517;28;20032;-45
2023/03/21 10:26:29;;;;;;;9.45;4.65;;;;;;;11.07;100.00;101329.88;5070298;28;20024;-44
2023/03/21 10:28:58;;;;;;;13.35;5.35;;;;;;;11.21;100.00;101331.22;5069493;28;20437;-46
2023/03/21 10:31:28;;;;;;;11.68;4.90;;;;;;;11.40;100.00;101330.09;5071771;28;20475;-46
2023/03/21 10:33:56;;;;;;;10.55;4.80;;;;;;;11.47;98.04;101326.91;5072748;28;20026;-43
2023/03/21 10:36:29;;;;;;;11.02;5.13;;;;;;;11.57;97.84;101324.63;5068930;28;20397;-45
2023/03/21 10:39:31;;;;;;;12.27;4.68;;;;;;;11.68;98.18;101329.28;5068412;28;20059;-44
2023/03/21 10:41:56;;;;;;;9.60;4.70;;;;;;;11.64;96.07;101324.84;5040667;28;20143;-48
2023/03/21 10:44:29;;;;;;;12.20;4.75;;;;;;;11.62;96.73;101323.94;5077364;28;20656;-46
2023/03/21 10:46:57;;;;;;;11.75;4.35;;;;;;;11.60;96.23;101325.59;5074685;28;20035;-48
2023/03/21 10:49:24;;;;;;;12.43;4.68;;;;;;;11.64;94.81;101331.69;5071421;28;20048;-45
2023/03/21 10:51:52;;;;;;;12.48;4.72;;;;;;;11.67;94.82;101321.50;5054710;28;20051;-44
2023/03/21 10:54:20;;;;;;;13.15;5.88;;;;;;;11.68;94.28;101324.13;5070153;28;21898;-46
2023/03/21 10:57:08;;;;;;;11.50;4.68;;;;;;;11.73;94.32;101329.44;5074730;28;20549;-46
2023/03/21 10:59:48;;;;;;;9.35;4.88;;;;;;;11.70;94.08;101337.91;5071479;28;20024;-46
2023/03/21 11:02:19;;;;;;;15.93;5.07;;;;;;;11.72;92.24;101325.97;5075903;28;20032;-47
2023/03/21 11:04:45;;;;;;;14.70;4.93;;;;;;;11.75;93.69;101317.47;5071525;28;20032;-49
2023/03/21 11:07:14;;;;;;;10.95;4.70;;;;;;;11.81;92.68;101336.59;5077504;28;20032;-47
2023/03/21 11:09:42;;;;;;;;;;;;;;;11.90;92.25;101317.09;5075789;28;20031;-44
2023/03/21 11:12:16;;;;;;;12.13;4.77;;;;;;;11.92;92.38;101312.84;5077046;28;20377;-47
2023/03/21 11:14:46;;;;;;;8.95;4.43;;;;;;;11.93;90.26;101314.59;5075479;28;20028;-46
2023/03/21 11:17:26;;;;;;;11.88;4.40;;;;;;;11.96;90.82;101304.41;5073002;28;20032;-45
2023/03/21 11:19:51;;;;;;;;;;;;;;;12.07;91.02;101318.44;5059583;28;20023;-47
2023/03/21 11:22:20;;;;;;;11.52;4.40;;;;;;;11.97;90.10;101307.00;5068757;28;19913;-45
2023/03/21 11:24:53;;;;;;;10.07;4.35;;;;;;;12.02;88.72;101320.03;5069774;28;20157;-47